sensor_id;sensor_type;location;lat;lon;timestamp;P1;durP1;ratioP1;P2;durP2;ratioP2
21661;SDS011;10992;48.170;8.596;2022-10-23T00:01:13;5.47;;;3.25;;
21661;SDS011;10992;48.170;8.596;2022-10-23T00:03:43;5.45;;;3.53;;
21661;SDS011;10992;48.170;8.596;2022-10-23T00:06:11;3.95;;;3.10;;
21661;SDS011;10992;48.170;8.596;2022-10-23T00:08:39;5.53;;;3.92;;
21661;SDS011;10992;48.170;8.596;2022-10-23T00:11:07;4.97;;;3.92;;
21661;SDS011;10992;48.170;8.596;2022-10-23T00:13:35;4.03;;;3.38;;
21661;SDS011;10992;48.170;8.596;2022-10-23T00:16:03;4.70;;;3.10;;
21661;SDS011;10992;48.170;8.596;2022-10-23T00:18:30;5.05;;;3.28;;
21661;SDS011;10992;48.170;8.596;2022-10-23T00:20:57;4.25;;;3.22;;
21661;SDS011;10992;48.170;8.596;2022-10-23T00:23:24;5.53;;;3.20;;
21661;SDS011;10992;48.170;8.596;2022-10-23T00:25:51;4.28;;;2.90;;
21661;SDS011;10992;48.170;8.596;2022-10-23T00:28:18;5.00;;;3.33;;
21661;SDS011;10992;48.170;8.596;2022-10-23T00:30:45;7.40;;;3.22;;
21661;SDS011;10992;48.170;8.596;2022-10-23T00:33:13;8.57;;;3.22;;
21661;SDS011;10992;48.170;8.596;2022-10-23T00:35:41;5.90;;;2.97;;
21661;SDS011;10992;48.170;8.596;2022-10-23T00:38:08;3.90;;;3.00;;
21661;SDS011;10992;48.170;8.596;2022-10-23T00:40:36;7.70;;;2.80;;
21661;SDS011;10992;48.170;8.596;2022-10-23T00:43:04;3.33;;;3.03;;
21661;SDS011;10992;48.170;8.596;2022-10-23T00:45:32;6.32;;;2.50;;
21661;SDS011;10992;48.170;8.596;2022-10-23T00:48:00;3.88;;;2.42;;
21661;SDS011;10992;48.170;8.596;2022-10-23T00:50:31;4.45;;;2.58;;
21661;SDS011;10992;48.170;8.596;2022-10-23T00:52:59;4.60;;;2.38;;
21661;SDS011;10992;48.170;8.596;2022-10-23T00:55:28;4.05;;;2.60;;
21661;SDS011;10992;48.170;8.596;2022-10-23T00:57:57;6.75;;;2.80;;
21661;SDS011;10992;48.170;8.596;2022-10-23T01:00:26;3.15;;;2.30;;
21661;SDS011;10992;48.170;8.596;2022-10-23T01:02:57;4.07;;;2.20;;
21661;SDS011;10992;48.170;8.596;2022-10-23T01:05:29;6.78;;;2.20;;
21661;SDS011;10992;48.170;8.596;2022-10-23T01:08:11;4.93;;;2.40;;
21661;SDS011;10992;48.170;8.596;2022-10-23T01:10:51;3.47;;;2.08;;
21661;SDS011;10992;48.170;8.596;2022-10-23T01:16:23;2.83;;;2.22;;
21661;SDS011;10992;48.170;8.596;2022-10-23T01:24:29;3.50;;;2.30;;
21661;SDS011;10992;48.170;8.596;2022-10-23T01:29:40;2.50;;;2.05;;
21661;SDS011;10992;48.170;8.596;2022-10-23T01:32:14;3.33;;;2.03;;
21661;SDS011;10992;48.170;8.596;2022-10-23T01:34:57;6.30;;;2.42;;
21661;SDS011;10992;48.170;8.596;2022-10-23T01:37:28;3.80;;;2.03;;
21661;SDS011;10992;48.170;8.596;2022-10-23T01:40:03;2.80;;;2.00;;
21661;SDS011;10992;48.170;8.596;2022-10-23T01:42:37;4.10;;;2.17;;
21661;SDS011;10992;48.170;8.596;2022-10-23T01:45:16;5.47;;;2.13;;
21661;SDS011;10992;48.170;8.596;2022-10-23T01:47:49;2.83;;;1.90;;
21661;SDS011;10992;48.170;8.596;2022-10-23T01:50:17;3.08;;;1.90;;
21661;SDS011;10992;48.170;8.596;2022-10-23T01:52:51;3.22;;;2.03;;
21661;SDS011;10992;48.170;8.596;2022-10-23T01:55:18;3.45;;;1.80;;
21661;SDS011;10992;48.170;8.596;2022-10-23T01:57:46;5.70;;;2.60;;
21661;SDS011;10992;48.170;8.596;2022-10-23T02:00:16;4.05;;;2.10;;
21661;SDS011;10992;48.170;8.596;2022-10-23T02:02:51;2.60;;;2.08;;
21661;SDS011;10992;48.170;8.596;2022-10-23T02:05:24;3.35;;;1.77;;
21661;SDS011;10992;48.170;8.596;2022-10-23T02:07:54;4.05;;;1.42;;
21661;SDS011;10992;48.170;8.596;2022-10-23T02:10:22;4.43;;;2.00;;
21661;SDS011;10992;48.170;8.596;2022-10-23T02:13:13;2.30;;;1.50;;
21661;SDS011;10992;48.170;8.596;2022-10-23T02:15:48;2.05;;;1.42;;
21661;SDS011;10992;48.170;8.596;2022-10-23T02:18:23;2.47;;;1.50;;
21661;SDS011;10992;48.170;8.596;2022-10-23T02:21:07;2.83;;;1.48;;
21661;SDS011;10992;48.170;8.596;2022-10-23T02:23:38;2.45;;;1.52;;
21661;SDS011;10992;48.170;8.596;2022-10-23T02:29:08;4.10;;;1.70;;
21661;SDS011;10992;48.170;8.596;2022-10-23T02:31:44;1.90;;;1.63;;
21661;SDS011;10992;48.170;8.596;2022-10-23T02:34:11;2.70;;;2.30;;
21661;SDS011;10992;48.170;8.596;2022-10-23T02:36:38;2.90;;;1.92;;
21661;SDS011;10992;48.170;8.596;2022-10-23T02:39:07;2.58;;;1.88;;
21661;SDS011;10992;48.170;8.596;2022-10-23T02:41:36;6.60;;;1.77;;
21661;SDS011;10992;48.170;8.596;2022-10-23T02:44:27;5.75;;;1.83;;
21661;SDS011;10992;48.170;8.596;2022-10-23T03:01:13;6.00;;;2.08;;
21661;SDS011;10992;48.170;8.596;2022-10-23T03:03:44;3.47;;;2.10;;
21661;SDS011;10992;48.170;8.596;2022-10-23T03:06:22;5.38;;;2.15;;
21661;SDS011;10992;48.170;8.596;2022-10-23T03:08:53;5.75;;;2.03;;
21661;SDS011;10992;48.170;8.596;2022-10-23T03:11:25;5.40;;;1.98;;
21661;SDS011;10992;48.170;8.596;2022-10-23T03:13:53;3.80;;;1.70;;
21661;SDS011;10992;48.170;8.596;2022-10-23T03:16:20;3.35;;;1.70;;
21661;SDS011;10992;48.170;8.596;2022-10-23T03:18:50;4.35;;;1.92;;
21661;SDS011;10992;48.170;8.596;2022-10-23T03:21:17;3.60;;;1.77;;
21661;SDS011;10992;48.170;8.596;2022-10-23T03:23:48;2.17;;;1.52;;
21661;SDS011;10992;48.170;8.596;2022-10-23T03:26:19;3.85;;;1.50;;
21661;SDS011;10992;48.170;8.596;2022-10-23T03:28:46;2.28;;;1.67;;
21661;SDS011;10992;48.170;8.596;2022-10-23T03:31:15;3.08;;;1.48;;
21661;SDS011;10992;48.170;8.596;2022-10-23T03:33:47;1.73;;;1.60;;
21661;SDS011;10992;48.170;8.596;2022-10-23T03:36:13;1.92;;;1.60;;
21661;SDS011;10992;48.170;8.596;2022-10-23T03:38:42;4.90;;;2.00;;
21661;SDS011;10992;48.170;8.596;2022-10-23T03:41:09;2.78;;;1.73;;
21661;SDS011;10992;48.170;8.596;2022-10-23T03:43:36;3.25;;;1.50;;
21661;SDS011;10992;48.170;8.596;2022-10-23T03:46:04;2.95;;;1.80;;
21661;SDS011;10992;48.170;8.596;2022-10-23T03:48:34;3.58;;;1.63;;
21661;SDS011;10992;48.170;8.596;2022-10-23T03:51:04;3.92;;;1.90;;
21661;SDS011;10992;48.170;8.596;2022-10-23T03:53:32;3.20;;;1.75;;
21661;SDS011;10992;48.170;8.596;2022-10-23T03:56:02;3.10;;;1.90;;
21661;SDS011;10992;48.170;8.596;2022-10-23T03:58:29;3.67;;;2.00;;
21661;SDS011;10992;48.170;8.596;2022-10-23T04:00:57;2.78;;;2.03;;
21661;SDS011;10992;48.170;8.596;2022-10-23T04:03:25;3.15;;;1.92;;
21661;SDS011;10992;48.170;8.596;2022-10-23T04:05:52;3.92;;;1.83;;
21661;SDS011;10992;48.170;8.596;2022-10-23T04:08:20;4.78;;;2.03;;
21661;SDS011;10992;48.170;8.596;2022-10-23T04:10:51;5.93;;;2.13;;
21661;SDS011;10992;48.170;8.596;2022-10-23T04:13:25;1.85;;;1.60;;
21661;SDS011;10992;48.170;8.596;2022-10-23T04:15:51;2.20;;;1.98;;
21661;SDS011;10992;48.170;8.596;2022-10-23T04:18:19;6.85;;;1.80;;
21661;SDS011;10992;48.170;8.596;2022-10-23T04:20:46;5.22;;;2.00;;
21661;SDS011;10992;48.170;8.596;2022-10-23T04:23:14;3.05;;;1.77;;
21661;SDS011;10992;48.170;8.596;2022-10-23T04:25:43;3.67;;;1.42;;
21661;SDS011;10992;48.170;8.596;2022-10-23T04:28:11;2.20;;;1.55;;
21661;SDS011;10992;48.170;8.596;2022-10-23T04:30:39;3.42;;;1.40;;
21661;SDS011;10992;48.170;8.596;2022-10-23T04:33:09;4.47;;;1.58;;
21661;SDS011;10992;48.170;8.596;2022-10-23T04:35:36;2.53;;;1.50;;
21661;SDS011;10992;48.170;8.596;2022-10-23T04:38:03;2.67;;;1.80;;
21661;SDS011;10992;48.170;8.596;2022-10-23T04:40:30;2.83;;;1.50;;
21661;SDS011;10992;48.170;8.596;2022-10-23T04:42:57;4.43;;;1.33;;
21661;SDS011;10992;48.170;8.596;2022-10-23T04:45:24;3.03;;;1.50;;
21661;SDS011;10992;48.170;8.596;2022-10-23T04:47:51;2.88;;;1.60;;
21661;SDS011;10992;48.170;8.596;2022-10-23T04:50:19;2.78;;;1.65;;
21661;SDS011;10992;48.170;8.596;2022-10-23T04:53:16;3.22;;;1.88;;
21661;SDS011;10992;48.170;8.596;2022-10-23T04:56:01;4.70;;;1.52;;
21661;SDS011;10992;48.170;8.596;2022-10-23T04:58:46;4.53;;;1.75;;
21661;SDS011;10992;48.170;8.596;2022-10-23T05:01:13;2.63;;;1.50;;
21661;SDS011;10992;48.170;8.596;2022-10-23T05:03:40;3.58;;;1.63;;
21661;SDS011;10992;48.170;8.596;2022-10-23T05:06:07;2.13;;;1.20;;
21661;SDS011;10992;48.170;8.596;2022-10-23T05:09:07;3.28;;;1.48;;
21661;SDS011;10992;48.170;8.596;2022-10-23T05:11:56;3.08;;;1.30;;
21661;SDS011;10992;48.170;8.596;2022-10-23T05:14:23;2.22;;;1.45;;
21661;SDS011;10992;48.170;8.596;2022-10-23T05:16:54;1.58;;;1.25;;
21661;SDS011;10992;48.170;8.596;2022-10-23T05:19:33;3.38;;;1.20;;
21661;SDS011;10992;48.170;8.596;2022-10-23T05:22:06;5.20;;;1.05;;
21661;SDS011;10992;48.170;8.596;2022-10-23T05:24:54;2.05;;;1.10;;
21661;SDS011;10992;48.170;8.596;2022-10-23T05:27:23;3.88;;;1.00;;
21661;SDS011;10992;48.170;8.596;2022-10-23T05:29:52;4.72;;;1.38;;
21661;SDS011;10992;48.170;8.596;2022-10-23T05:32:23;1.33;;;1.23;;
21661;SDS011;10992;48.170;8.596;2022-10-23T05:34:52;3.47;;;1.35;;
21661;SDS011;10992;48.170;8.596;2022-10-23T05:37:24;3.03;;;1.15;;
21661;SDS011;10992;48.170;8.596;2022-10-23T05:40:02;1.13;;;0.90;;
21661;SDS011;10992;48.170;8.596;2022-10-23T05:42:32;2.30;;;1.17;;
21661;SDS011;10992;48.170;8.596;2022-10-23T05:45:03;2.75;;;1.13;;
21661;SDS011;10992;48.170;8.596;2022-10-23T05:48:03;0.82;;;0.82;;
21661;SDS011;10992;48.170;8.596;2022-10-23T05:51:06;3.67;;;1.83;;
21661;SDS011;10992;48.170;8.596;2022-10-23T05:54:07;1.52;;;1.30;;
21661;SDS011;10992;48.170;8.596;2022-10-23T05:57:00;1.50;;;1.02;;
21661;SDS011;10992;48.170;8.596;2022-10-23T05:59:31;2.25;;;1.10;;
21661;SDS011;10992;48.170;8.596;2022-10-23T06:02:16;2.03;;;1.25;;
21661;SDS011;10992;48.170;8.596;2022-10-23T06:04:51;2.55;;;1.30;;
21661;SDS011;10992;48.170;8.596;2022-10-23T06:07:37;4.30;;;1.20;;
21661;SDS011;10992;48.170;8.596;2022-10-23T06:10:05;2.00;;;0.98;;
21661;SDS011;10992;48.170;8.596;2022-10-23T06:12:37;2.72;;;1.20;;
21661;SDS011;10992;48.170;8.596;2022-10-23T06:15:05;1.88;;;1.15;;
21661;SDS011;10992;48.170;8.596;2022-10-23T06:17:53;2.17;;;1.40;;
21661;SDS011;10992;48.170;8.596;2022-10-23T06:20:20;1.45;;;1.10;;
21661;SDS011;10992;48.170;8.596;2022-10-23T06:23:03;1.65;;;1.20;;
21661;SDS011;10992;48.170;8.596;2022-10-23T06:25:53;4.55;;;1.20;;
21661;SDS011;10992;48.170;8.596;2022-10-23T06:28:29;1.90;;;1.33;;
21661;SDS011;10992;48.170;8.596;2022-10-23T06:30:57;2.67;;;1.02;;
21661;SDS011;10992;48.170;8.596;2022-10-23T06:33:24;1.95;;;1.17;;
21661;SDS011;10992;48.170;8.596;2022-10-23T06:35:54;1.75;;;0.93;;
21661;SDS011;10992;48.170;8.596;2022-10-23T06:38:21;2.42;;;1.08;;
21661;SDS011;10992;48.170;8.596;2022-10-23T06:40:53;3.42;;;1.30;;
21661;SDS011;10992;48.170;8.596;2022-10-23T06:43:30;2.28;;;1.20;;
21661;SDS011;10992;48.170;8.596;2022-10-23T06:46:20;4.93;;;1.27;;
21661;SDS011;10992;48.170;8.596;2022-10-23T06:49:10;1.52;;;1.23;;
21661;SDS011;10992;48.170;8.596;2022-10-23T06:51:45;2.65;;;1.30;;
21661;SDS011;10992;48.170;8.596;2022-10-23T06:54:14;3.17;;;1.10;;
21661;SDS011;10992;48.170;8.596;2022-10-23T06:57:00;1.00;;;0.90;;
21661;SDS011;10992;48.170;8.596;2022-10-23T06:59:38;3.13;;;1.27;;
21661;SDS011;10992;48.170;8.596;2022-10-23T07:02:08;1.50;;;1.00;;
21661;SDS011;10992;48.170;8.596;2022-10-23T07:04:36;2.55;;;1.20;;
21661;SDS011;10992;48.170;8.596;2022-10-23T07:07:09;2.20;;;0.95;;
21661;SDS011;10992;48.170;8.596;2022-10-23T07:09:43;2.08;;;1.23;;
21661;SDS011;10992;48.170;8.596;2022-10-23T07:12:13;2.60;;;1.00;;
21661;SDS011;10992;48.170;8.596;2022-10-23T07:14:46;4.00;;;1.10;;
21661;SDS011;10992;48.170;8.596;2022-10-23T07:17:14;2.80;;;0.88;;
21661;SDS011;10992;48.170;8.596;2022-10-23T07:19:41;3.08;;;0.90;;
21661;SDS011;10992;48.170;8.596;2022-10-23T07:22:10;5.15;;;1.00;;
21661;SDS011;10992;48.170;8.596;2022-10-23T07:24:53;1.33;;;0.82;;
21661;SDS011;10992;48.170;8.596;2022-10-23T07:27:27;1.58;;;0.80;;
21661;SDS011;10992;48.170;8.596;2022-10-23T07:29:55;1.02;;;0.80;;
21661;SDS011;10992;48.170;8.596;2022-10-23T07:32:27;0.77;;;0.60;;
21661;SDS011;10992;48.170;8.596;2022-10-23T07:35:14;1.55;;;0.63;;
21661;SDS011;10992;48.170;8.596;2022-10-23T07:37:58;2.30;;;0.60;;
21661;SDS011;10992;48.170;8.596;2022-10-23T07:40:28;3.20;;;0.75;;
21661;SDS011;10992;48.170;8.596;2022-10-23T07:42:55;1.75;;;0.47;;
21661;SDS011;10992;48.170;8.596;2022-10-23T07:45:23;1.77;;;0.50;;
21661;SDS011;10992;48.170;8.596;2022-10-23T07:47:51;0.80;;;0.50;;
21661;SDS011;10992;48.170;8.596;2022-10-23T07:50:21;0.85;;;0.47;;
21661;SDS011;10992;48.170;8.596;2022-10-23T07:52:48;2.75;;;0.50;;
21661;SDS011;10992;48.170;8.596;2022-10-23T07:55:16;1.48;;;0.40;;
21661;SDS011;10992;48.170;8.596;2022-10-23T07:58:00;0.63;;;0.60;;
21661;SDS011;10992;48.170;8.596;2022-10-23T08:00:37;0.75;;;0.60;;
21661;SDS011;10992;48.170;8.596;2022-10-23T08:03:13;0.75;;;0.50;;
21661;SDS011;10992;48.170;8.596;2022-10-23T08:05:40;2.13;;;0.60;;
21661;SDS011;10992;48.170;8.596;2022-10-23T08:08:08;3.40;;;0.70;;
21661;SDS011;10992;48.170;8.596;2022-10-23T08:10:37;2.13;;;0.57;;
21661;SDS011;10992;48.170;8.596;2022-10-23T08:13:10;0.60;;;0.40;;
21661;SDS011;10992;48.170;8.596;2022-10-23T08:16:01;0.47;;;0.40;;
21661;SDS011;10992;48.170;8.596;2022-10-23T08:18:47;0.50;;;0.30;;
21661;SDS011;10992;48.170;8.596;2022-10-23T08:21:16;2.63;;;0.52;;
21661;SDS011;10992;48.170;8.596;2022-10-23T08:23:47;0.93;;;0.50;;
21661;SDS011;10992;48.170;8.596;2022-10-23T08:26:14;1.55;;;0.75;;
21661;SDS011;10992;48.170;8.596;2022-10-23T08:28:41;1.00;;;0.70;;
21661;SDS011;10992;48.170;8.596;2022-10-23T08:31:13;4.55;;;0.60;;
21661;SDS011;10992;48.170;8.596;2022-10-23T08:33:56;1.63;;;0.85;;
21661;SDS011;10992;48.170;8.596;2022-10-23T08:36:24;0.73;;;0.50;;
21661;SDS011;10992;48.170;8.596;2022-10-23T08:38:54;1.67;;;0.50;;
21661;SDS011;10992;48.170;8.596;2022-10-23T08:41:31;2.17;;;0.90;;
21661;SDS011;10992;48.170;8.596;2022-10-23T08:47:12;2.75;;;0.50;;
21661;SDS011;10992;48.170;8.596;2022-10-23T08:50:26;2.22;;;0.57;;
21661;SDS011;10992;48.170;8.596;2022-10-23T08:55:35;1.67;;;0.40;;
21661;SDS011;10992;48.170;8.596;2022-10-23T08:58:06;1.95;;;0.47;;
21661;SDS011;10992;48.170;8.596;2022-10-23T09:00:41;2.13;;;0.38;;
21661;SDS011;10992;48.170;8.596;2022-10-23T09:03:09;1.38;;;0.63;;
21661;SDS011;10992;48.170;8.596;2022-10-23T09:08:25;0.50;;;0.40;;
21661;SDS011;10992;48.170;8.596;2022-10-23T09:11:23;0.47;;;0.40;;
21661;SDS011;10992;48.170;8.596;2022-10-23T09:14:04;1.83;;;0.35;;
21661;SDS011;10992;48.170;8.596;2022-10-23T09:16:50;1.45;;;0.40;;
21661;SDS011;10992;48.170;8.596;2022-10-23T09:19:44;0.90;;;0.40;;
21661;SDS011;10992;48.170;8.596;2022-10-23T09:22:11;1.42;;;0.30;;
21661;SDS011;10992;48.170;8.596;2022-10-23T09:24:41;1.88;;;0.40;;
21661;SDS011;10992;48.170;8.596;2022-10-23T09:27:10;2.10;;;0.28;;
21661;SDS011;10992;48.170;8.596;2022-10-23T09:29:49;0.93;;;0.30;;
21661;SDS011;10992;48.170;8.596;2022-10-23T09:32:18;1.50;;;0.30;;
21661;SDS011;10992;48.170;8.596;2022-10-23T09:34:52;1.27;;;0.38;;
21661;SDS011;10992;48.170;8.596;2022-10-23T09:37:22;2.58;;;0.63;;
21661;SDS011;10992;48.170;8.596;2022-10-23T09:40:01;1.05;;;0.43;;
21661;SDS011;10992;48.170;8.596;2022-10-23T09:45:33;0.80;;;0.30;;
21661;SDS011;10992;48.170;8.596;2022-10-23T09:48:16;0.57;;;0.30;;
21661;SDS011;10992;48.170;8.596;2022-10-23T09:50:48;1.60;;;0.22;;
21661;SDS011;10992;48.170;8.596;2022-10-23T09:53:20;0.65;;;0.30;;
21661;SDS011;10992;48.170;8.596;2022-10-23T09:55:52;0.90;;;0.43;;
21661;SDS011;10992;48.170;8.596;2022-10-23T09:58:31;0.60;;;0.30;;
21661;SDS011;10992;48.170;8.596;2022-10-23T10:01:01;1.80;;;0.20;;
21661;SDS011;10992;48.170;8.596;2022-10-23T10:03:46;1.17;;;0.43;;
21661;SDS011;10992;48.170;8.596;2022-10-23T10:06:20;0.55;;;0.40;;
21661;SDS011;10992;48.170;8.596;2022-10-23T10:08:56;0.65;;;0.30;;
21661;SDS011;10992;48.170;8.596;2022-10-23T10:11:34;0.65;;;0.40;;
21661;SDS011;10992;48.170;8.596;2022-10-23T10:16:41;0.47;;;0.20;;
21661;SDS011;10992;48.170;8.596;2022-10-23T10:19:34;0.70;;;0.47;;
21661;SDS011;10992;48.170;8.596;2022-10-23T10:30:20;1.35;;;0.50;;
21661;SDS011;10992;48.170;8.596;2022-10-23T10:38:35;0.70;;;0.47;;
21661;SDS011;10992;48.170;8.596;2022-10-23T10:41:21;0.55;;;0.40;;
21661;SDS011;10992;48.170;8.596;2022-10-23T10:49:53;0.95;;;0.40;;
21661;SDS011;10992;48.170;8.596;2022-10-23T10:52:55;0.40;;;0.22;;
21661;SDS011;10992;48.170;8.596;2022-10-23T10:55:38;1.27;;;0.45;;
21661;SDS011;10992;48.170;8.596;2022-10-23T11:06:28;3.58;;;0.63;;
21661;SDS011;10992;48.170;8.596;2022-10-23T11:08:58;1.55;;;0.60;;
21661;SDS011;10992;48.170;8.596;2022-10-23T11:11:45;0.52;;;0.40;;
21661;SDS011;10992;48.170;8.596;2022-10-23T11:14:17;0.65;;;0.45;;
21661;SDS011;10992;48.170;8.596;2022-10-23T11:17:14;1.75;;;0.52;;
21661;SDS011;10992;48.170;8.596;2022-10-23T11:22:36;1.52;;;0.50;;
21661;SDS011;10992;48.170;8.596;2022-10-23T11:25:25;1.35;;;0.40;;
21661;SDS011;10992;48.170;8.596;2022-10-23T11:34:24;0.70;;;0.40;;
21661;SDS011;10992;48.170;8.596;2022-10-23T11:37:02;2.08;;;0.40;;
21661;SDS011;10992;48.170;8.596;2022-10-23T11:39:31;2.42;;;0.60;;
21661;SDS011;10992;48.170;8.596;2022-10-23T11:47:24;0.77;;;0.60;;
21661;SDS011;10992;48.170;8.596;2022-10-23T11:52:35;0.60;;;0.50;;
21661;SDS011;10992;48.170;8.596;2022-10-23T11:55:22;1.35;;;0.73;;
21661;SDS011;10992;48.170;8.596;2022-10-23T12:00:53;1.55;;;0.50;;
21661;SDS011;10992;48.170;8.596;2022-10-23T12:03:29;4.90;;;0.70;;
21661;SDS011;10992;48.170;8.596;2022-10-23T12:06:03;3.08;;;0.50;;
21661;SDS011;10992;48.170;8.596;2022-10-23T12:08:34;2.90;;;0.40;;
21661;SDS011;10992;48.170;8.596;2022-10-23T12:11:22;1.02;;;0.55;;
21661;SDS011;10992;48.170;8.596;2022-10-23T12:13:55;1.70;;;0.50;;
21661;SDS011;10992;48.170;8.596;2022-10-23T12:16:32;3.58;;;0.57;;
21661;SDS011;10992;48.170;8.596;2022-10-23T12:19:00;0.40;;;0.40;;
21661;SDS011;10992;48.170;8.596;2022-10-23T12:21:44;2.83;;;0.50;;
21661;SDS011;10992;48.170;8.596;2022-10-23T12:27:29;3.63;;;0.75;;
21661;SDS011;10992;48.170;8.596;2022-10-23T12:30:22;2.70;;;0.43;;
21661;SDS011;10992;48.170;8.596;2022-10-23T12:33:06;3.10;;;0.40;;
21661;SDS011;10992;48.170;8.596;2022-10-23T12:38:38;3.47;;;0.60;;
21661;SDS011;10992;48.170;8.596;2022-10-23T12:41:15;1.60;;;0.57;;
21661;SDS011;10992;48.170;8.596;2022-10-23T12:43:51;2.00;;;0.50;;
21661;SDS011;10992;48.170;8.596;2022-10-23T12:46:38;0.95;;;0.43;;
21661;SDS011;10992;48.170;8.596;2022-10-23T12:49:12;2.17;;;0.50;;
21661;SDS011;10992;48.170;8.596;2022-10-23T12:51:40;1.40;;;0.80;;
21661;SDS011;10992;48.170;8.596;2022-10-23T12:54:15;0.70;;;0.60;;
21661;SDS011;10992;48.170;8.596;2022-10-23T12:56:43;0.88;;;0.40;;
21661;SDS011;10992;48.170;8.596;2022-10-23T12:59:13;2.78;;;0.52;;
21661;SDS011;10992;48.170;8.596;2022-10-23T13:01:43;0.95;;;0.50;;
21661;SDS011;10992;48.170;8.596;2022-10-23T13:07:03;2.15;;;0.73;;
21661;SDS011;10992;48.170;8.596;2022-10-23T13:09:37;1.90;;;0.43;;
21661;SDS011;10992;48.170;8.596;2022-10-23T13:12:26;2.03;;;0.50;;
21661;SDS011;10992;48.170;8.596;2022-10-23T13:14:57;1.00;;;0.40;;
21661;SDS011;10992;48.170;8.596;2022-10-23T13:20:27;0.95;;;0.43;;
21661;SDS011;10992;48.170;8.596;2022-10-23T13:23:00;1.27;;;0.70;;
21661;SDS011;10992;48.170;8.596;2022-10-23T13:25:42;1.55;;;0.60;;
21661;SDS011;10992;48.170;8.596;2022-10-23T13:30:44;3.13;;;1.40;;
21661;SDS011;10992;48.170;8.596;2022-10-23T13:33:23;4.15;;;1.13;;
21661;SDS011;10992;48.170;8.596;2022-10-23T13:35:54;1.05;;;0.75;;
21661;SDS011;10992;48.170;8.596;2022-10-23T13:38:28;2.15;;;0.60;;
21661;SDS011;10992;48.170;8.596;2022-10-23T13:41:00;2.17;;;1.70;;
21661;SDS011;10992;48.170;8.596;2022-10-23T13:43:29;3.55;;;1.10;;
21661;SDS011;10992;48.170;8.596;2022-10-23T13:45:58;2.15;;;1.60;;
21661;SDS011;10992;48.170;8.596;2022-10-23T13:48:25;1.92;;;0.85;;
21661;SDS011;10992;48.170;8.596;2022-10-23T13:50:53;1.15;;;1.05;;
21661;SDS011;10992;48.170;8.596;2022-10-23T13:53:23;1.52;;;0.70;;
21661;SDS011;10992;48.170;8.596;2022-10-23T13:55:50;3.45;;;1.25;;
21661;SDS011;10992;48.170;8.596;2022-10-23T13:58:23;2.25;;;1.40;;
21661;SDS011;10992;48.170;8.596;2022-10-23T14:00:50;2.97;;;2.35;;
21661;SDS011;10992;48.170;8.596;2022-10-23T14:03:18;4.78;;;1.48;;
21661;SDS011;10992;48.170;8.596;2022-10-23T14:05:49;2.30;;;0.98;;
21661;SDS011;10992;48.170;8.596;2022-10-23T14:08:16;3.63;;;0.60;;
21661;SDS011;10992;48.170;8.596;2022-10-23T14:10:44;1.98;;;0.90;;
21661;SDS011;10992;48.170;8.596;2022-10-23T14:13:11;4.32;;;0.90;;
21661;SDS011;10992;48.170;8.596;2022-10-23T14:15:38;1.95;;;0.80;;
21661;SDS011;10992;48.170;8.596;2022-10-23T14:18:05;2.47;;;0.95;;
21661;SDS011;10992;48.170;8.596;2022-10-23T14:20:33;2.42;;;1.13;;
21661;SDS011;10992;48.170;8.596;2022-10-23T14:23:03;1.98;;;0.88;;
21661;SDS011;10992;48.170;8.596;2022-10-23T14:25:29;1.20;;;0.70;;
21661;SDS011;10992;48.170;8.596;2022-10-23T14:27:56;2.33;;;0.50;;
21661;SDS011;10992;48.170;8.596;2022-10-23T14:30:23;5.07;;;0.60;;
21661;SDS011;10992;48.170;8.596;2022-10-23T14:32:50;1.42;;;0.70;;
21661;SDS011;10992;48.170;8.596;2022-10-23T14:35:17;1.45;;;0.70;;
21661;SDS011;10992;48.170;8.596;2022-10-23T14:37:44;3.58;;;0.63;;
21661;SDS011;10992;48.170;8.596;2022-10-23T14:40:12;1.90;;;0.60;;
21661;SDS011;10992;48.170;8.596;2022-10-23T14:42:39;5.20;;;0.90;;
21661;SDS011;10992;48.170;8.596;2022-10-23T14:45:06;2.90;;;0.73;;
21661;SDS011;10992;48.170;8.596;2022-10-23T14:47:33;2.88;;;0.90;;
21661;SDS011;10992;48.170;8.596;2022-10-23T14:50:00;1.40;;;0.68;;
21661;SDS011;10992;48.170;8.596;2022-10-23T14:52:27;2.20;;;0.80;;
21661;SDS011;10992;48.170;8.596;2022-10-23T14:54:54;3.03;;;0.68;;
21661;SDS011;10992;48.170;8.596;2022-10-23T14:57:20;2.63;;;0.70;;
21661;SDS011;10992;48.170;8.596;2022-10-23T14:59:48;2.72;;;0.50;;
21661;SDS011;10992;48.170;8.596;2022-10-23T15:02:15;2.97;;;1.50;;
21661;SDS011;10992;48.170;8.596;2022-10-23T15:04:43;1.63;;;1.02;;
21661;SDS011;10992;48.170;8.596;2022-10-23T15:07:10;2.67;;;0.80;;
21661;SDS011;10992;48.170;8.596;2022-10-23T15:09:36;2.50;;;0.60;;
21661;SDS011;10992;48.170;8.596;2022-10-23T15:12:05;1.40;;;0.60;;
21661;SDS011;10992;48.170;8.596;2022-10-23T15:14:33;1.42;;;0.65;;
21661;SDS011;10992;48.170;8.596;2022-10-23T15:17:00;1.83;;;0.55;;
21661;SDS011;10992;48.170;8.596;2022-10-23T15:19:28;3.08;;;0.70;;
21661;SDS011;10992;48.170;8.596;2022-10-23T15:21:54;1.40;;;0.52;;
21661;SDS011;10992;48.170;8.596;2022-10-23T15:24:21;1.63;;;0.60;;
21661;SDS011;10992;48.170;8.596;2022-10-23T15:26:48;3.63;;;0.60;;
21661;SDS011;10992;48.170;8.596;2022-10-23T15:29:17;2.88;;;0.50;;
21661;SDS011;10992;48.170;8.596;2022-10-23T15:31:52;1.63;;;0.52;;
21661;SDS011;10992;48.170;8.596;2022-10-23T15:34:24;2.45;;;0.60;;
21661;SDS011;10992;48.170;8.596;2022-10-23T15:36:52;4.65;;;0.70;;
21661;SDS011;10992;48.170;8.596;2022-10-23T15:39:22;3.47;;;0.90;;
21661;SDS011;10992;48.170;8.596;2022-10-23T15:41:52;5.07;;;0.73;;
21661;SDS011;10992;48.170;8.596;2022-10-23T15:44:21;0.80;;;0.60;;
21661;SDS011;10992;48.170;8.596;2022-10-23T15:46:49;1.98;;;0.70;;
21661;SDS011;10992;48.170;8.596;2022-10-23T15:49:17;4.28;;;0.60;;
21661;SDS011;10992;48.170;8.596;2022-10-23T15:51:45;1.50;;;0.60;;
21661;SDS011;10992;48.170;8.596;2022-10-23T15:54:13;5.38;;;0.90;;
21661;SDS011;10992;48.170;8.596;2022-10-23T15:56:45;2.72;;;0.80;;
21661;SDS011;10992;48.170;8.596;2022-10-23T15:59:14;2.20;;;0.70;;
21661;SDS011;10992;48.170;8.596;2022-10-23T16:01:41;2.58;;;0.90;;
21661;SDS011;10992;48.170;8.596;2022-10-23T16:04:09;3.00;;;0.60;;
21661;SDS011;10992;48.170;8.596;2022-10-23T16:06:35;3.25;;;0.65;;
21661;SDS011;10992;48.170;8.596;2022-10-23T16:09:02;1.45;;;0.57;;
21661;SDS011;10992;48.170;8.596;2022-10-23T16:11:30;1.75;;;0.60;;
21661;SDS011;10992;48.170;8.596;2022-10-23T16:14:00;2.25;;;0.70;;
21661;SDS011;10992;48.170;8.596;2022-10-23T16:16:29;2.50;;;0.80;;
21661;SDS011;10992;48.170;8.596;2022-10-23T16:18:57;4.88;;;1.00;;
21661;SDS011;10992;48.170;8.596;2022-10-23T16:21:26;4.90;;;2.03;;
21661;SDS011;10992;48.170;8.596;2022-10-23T16:23:56;5.75;;;1.40;;
21661;SDS011;10992;48.170;8.596;2022-10-23T16:26:24;7.15;;;2.42;;
21661;SDS011;10992;48.170;8.596;2022-10-23T16:28:52;6.68;;;4.53;;
21661;SDS011;10992;48.170;8.596;2022-10-23T16:31:24;5.50;;;3.78;;
21661;SDS011;10992;48.170;8.596;2022-10-23T16:33:51;7.38;;;1.77;;
21661;SDS011;10992;48.170;8.596;2022-10-23T16:36:19;15.88;;;6.25;;
21661;SDS011;10992;48.170;8.596;2022-10-23T16:39:05;46.53;;;23.33;;
21661;SDS011;10992;48.170;8.596;2022-10-23T16:41:52;22.23;;;12.27;;
21661;SDS011;10992;48.170;8.596;2022-10-23T16:44:20;42.53;;;20.35;;
21661;SDS011;10992;48.170;8.596;2022-10-23T16:46:55;9.75;;;4.72;;
21661;SDS011;10992;48.170;8.596;2022-10-23T16:49:22;5.55;;;1.92;;
21661;SDS011;10992;48.170;8.596;2022-10-23T16:51:49;8.13;;;2.20;;
21661;SDS011;10992;48.170;8.596;2022-10-23T16:54:16;4.88;;;1.60;;
21661;SDS011;10992;48.170;8.596;2022-10-23T16:56:43;5.30;;;1.80;;
21661;SDS011;10992;48.170;8.596;2022-10-23T16:59:10;4.38;;;1.60;;
21661;SDS011;10992;48.170;8.596;2022-10-23T17:01:37;4.95;;;2.10;;
21661;SDS011;10992;48.170;8.596;2022-10-23T17:04:05;10.45;;;2.20;;
21661;SDS011;10992;48.170;8.596;2022-10-23T17:06:33;6.15;;;2.20;;